Time;durP1;ratioP1;P1;durP2;ratioP2;P2;SDS_P1;SDS_P2;PMS_P1;PMS_P2;Temp;Humidity;BMP_temperature;BMP_pressure;BME280_temperature;BME280_humidity;BME280_pressure;Samples;Min_cycle;Max_cycle;Signal;HPM_P1;HPM_P2
2021/06/21 00:00:16;;;;;;;6.28;2.38;;;;;;;21.83;72.70;99990.63;4838303;29;20124;-69
2021/06/21 00:02:43;;;;;;;5.90;3.30;;;;;;;21.97;72.54;99992.56;4839562;29;20069;-68
2021/06/21 00:05:12;;;;;;;6.47;2.53;;;;;;;21.78;72.99;99991.06;4838253;29;20058;-71
2021/06/21 00:07:40;;;;;;;6.47;2.60;;;;;;;21.73;73.30;99991.44;4900938;29;20502;-69
2021/06/21 00:10:09;;;;;;;6.60;2.53;;;;;;;21.89;73.24;99975.00;4837721;29;20053;-68
2021/06/21 00:12:40;;;;;;;5.53;2.50;;;;;;;21.89;73.45;99979.78;4901684;29;20054;-69
2021/06/21 00:15:09;;;;;;;8.30;2.70;;;;;;;22.05;72.59;99994.16;4822179;29;20050;-69
2021/06/21 00:17:37;;;;;;;5.68;2.90;;;;;;;21.99;72.60;99984.56;4901223;29;20537;-68
2021/06/21 00:20:05;;;;;;;5.75;2.80;;;;;;;21.87;72.82;99983.00;4839808;29;20065;-69
2021/06/21 00:22:32;;;;;;;5.72;3.10;;;;;;;21.87;73.07;99988.63;4831382;29;236926;-73
2021/06/21 00:29:37;;;;;;;7.28;3.58;;;;;;;21.72;73.90;99987.06;4839744;29;20058;-76
2021/06/21 00:32:05;;;;;;;6.35;4.15;;;;;;;21.80;73.41;99985.03;4837520;29;20053;-73
2021/06/21 00:34:33;;;;;;;7.50;3.85;;;;;;;21.73;73.58;99994.25;4823207;29;20463;-71
2021/06/21 00:37:00;;;;;;;8.45;3.85;;;;;;;21.83;73.18;99998.22;4837259;29;20054;-72
2021/06/21 00:39:28;;;;;;;7.03;3.80;;;;;;;21.81;73.07;99989.47;4838611;29;20042;-72
2021/06/21 00:41:55;;;;;;;6.68;3.55;;;;;;;21.72;73.94;99989.06;4823369;29;20502;-75
2021/06/21 00:44:23;;;;;;;7.50;3.63;;;;;;;21.51;74.45;99989.13;4837265;29;20054;-71
2021/06/21 00:46:50;;;;;;;6.93;3.40;;;;;;;21.59;74.29;99985.06;4901298;29;20046;-71
2021/06/21 00:49:18;;;;;;;5.85;3.15;;;;;;;21.50;74.79;99993.91;4838283;29;20371;-71
2021/06/21 00:51:45;;;;;;;6.68;3.17;;;;;;;21.55;75.01;99985.09;4838162;29;20062;-70
2021/06/21 00:54:14;;;;;;;7.18;3.60;;;;;;;21.71;74.20;99984.63;4836404;29;20050;-69
2021/06/21 00:56:41;;;;;;;5.65;2.40;;;;;;;21.67;73.93;99995.06;4838681;29;20054;-70
2021/06/21 00:59:09;;;;;;;6.60;2.88;;;;;;;21.58;74.77;100000.31;4852178;29;20442;-68
2021/06/21 01:01:36;;;;;;;8.77;2.85;;;;;;;21.56;74.83;99992.31;4886000;29;20046;-70
2021/06/21 01:04:05;;;;;;;5.53;2.80;;;;;;;21.34;75.84;99992.75;4884364;29;20401;-70
2021/06/21 01:06:32;;;;;;;7.32;2.63;;;;;;;21.55;75.48;99998.31;4885302;29;20063;-70
2021/06/21 01:08:59;;;;;;;5.95;2.80;;;;;;;21.27;76.34;99996.34;4838436;29;20078;-70
2021/06/21 01:11:43;;;;;;;6.97;3.42;;;;;;;21.41;76.06;99998.34;4824490;29;20067;-69
2021/06/21 01:14:23;;;;;;;5.72;3.45;;;;;;;21.42;76.41;99989.53;4824973;29;20518;-71
2021/06/21 01:17:05;;;;;;;6.85;3.95;;;;;;;21.62;75.21;99984.28;4842621;29;20395;-69
2021/06/21 01:19:49;;;;;;;9.18;3.80;;;;;;;21.46;76.11;99995.94;4842661;29;20068;-68
2021/06/21 01:22:47;;;;;;;7.75;4.50;;;;;;;21.34;76.74;99999.13;4840090;29;20077;-70
2021/06/21 01:25:28;;;;;;;7.50;4.60;;;;;;;21.36;77.61;100004.38;4839659;29;20057;-74
2021/06/21 01:28:15;;;;;;;7.70;4.88;;;;;;;21.32;78.18;99995.97;4840262;29;20373;-73
2021/06/21 01:30:49;;;;;;;7.25;4.43;;;;;;;21.43;77.44;99996.72;4839986;29;20497;-76
2021/06/21 01:33:19;;;;;;;9.95;5.20;;;;;;;21.33;78.28;100000.34;4841161;29;20045;-72
2021/06/21 01:35:54;;;;;;;7.78;4.90;;;;;;;21.33;77.93;100003.16;4889052;29;20069;-75
2021/06/21 01:38:31;;;;;;;9.98;4.57;;;;;;;21.51;77.50;100005.94;4904234;29;20556;-76
2021/06/21 01:41:01;;;;;;;10.95;5.43;;;;;;;21.67;76.83;100012.69;4904781;29;20379;-74
2021/06/21 01:43:32;;;;;;;7.10;4.90;;;;;;;21.54;77.54;100016.31;4839300;29;20058;-75
2021/06/21 01:46:01;;;;;;;9.20;5.25;;;;;;;21.64;76.34;100013.50;4840431;29;20126;-77
2021/06/21 01:48:30;;;;;;;6.45;4.40;;;;;;;21.28;76.70;100009.16;4840530;29;20074;-73
2021/06/21 01:51:02;;;;;;;7.60;4.22;;;;;;;21.39;75.60;100001.56;4809662;29;20050;-74
2021/06/21 01:53:32;;;;;;;10.07;4.10;;;;;;;21.27;75.42;100006.78;4826527;29;20057;-71
2021/06/21 01:56:07;;;;;;;6.68;4.22;;;;;;;21.10;75.54;100005.56;4839051;29;20058;-73
2021/06/21 01:58:37;;;;;;;7.97;3.92;;;;;;;21.00;75.66;100012.81;4839292;29;20057;-72
2021/06/21 02:01:14;;;;;;;6.75;3.60;;;;;;;20.92;75.29;100013.16;4839841;29;20057;-72
2021/06/21 02:03:48;;;;;;;9.02;3.20;;;;;;;20.87;75.20;100019.94;4825342;29;20058;-70
2021/06/21 02:06:16;;;;;;;8.70;3.03;;;;;;;20.82;74.90;100025.13;4841407;29;20073;-68
2021/06/21 02:08:45;;;;;;;7.35;2.75;;;;;;;20.86;74.69;100018.38;4840534;29;20061;-70
2021/06/21 02:11:14;;;;;;;4.93;2.60;;;;;;;20.85;73.99;100016.75;4839519;29;20061;-71
2021/06/21 02:13:43;;;;;;;6.60;2.60;;;;;;;20.90;73.53;100023.97;4839702;29;20050;-72
2021/06/21 02:16:11;;;;;;;6.90;2.53;;;;;;;20.77;73.76;100026.34;4824357;29;20053;-69
2021/06/21 02:18:39;;;;;;;5.32;2.17;;;;;;;20.84;73.14;100031.97;4840619;29;20077;-70
2021/06/21 02:21:06;;;;;;;4.80;2.40;;;;;;;20.80;73.44;100025.53;4841212;29;20057;-73
2021/06/21 02:23:36;;;;;;;4.28;2.25;;;;;;;20.79;73.30;100028.75;4903454;29;20123;-71
2021/06/21 02:26:04;;;;;;;10.20;2.65;;;;;;;20.80;73.43;100031.16;4824099;29;20054;-70
2021/06/21 02:28:32;;;;;;;6.65;2.30;;;;;;;20.67;73.28;100026.34;4823952;29;20082;-74
2021/06/21 02:31:01;;;;;;;6.47;2.20;;;;;;;20.62;73.49;100033.13;4840453;29;20062;-72
2021/06/21 02:33:29;;;;;;;6.13;2.63;;;;;;;20.65;73.52;100034.31;4839083;29;20414;-68
2021/06/21 02:35:56;;;;;;;6.20;2.70;;;;;;;20.69;73.62;100040.75;4838684;29;20069;-74
2021/06/21 02:38:24;;;;;;;6.03;2.08;;;;;;;20.68;73.39;100042.72;4823358;29;20050;-67
2021/06/21 02:40:51;;;;;;;6.18;2.30;;;;;;;20.45;73.82;100041.50;4840250;29;20057;-71
2021/06/21 02:43:19;;;;;;;4.13;2.05;;;;;;;20.50;74.12;100032.72;4840353;29;20486;-75
2021/06/21 02:45:46;;;;;;;5.82;2.10;;;;;;;20.42;74.30;100037.47;4808327;29;20412;-72
2021/06/21 02:48:14;;;;;;;5.45;2.00;;;;;;;20.40;74.32;100037.06;4840131;29;20065;-73
2021/06/21 02:50:43;;;;;;;6.50;2.22;;;;;;;20.35;74.39;100034.66;4841152;29;20046;-75
2021/06/21 02:53:16;;;;;;;5.75;2.55;;;;;;;20.25;75.25;100043.00;4840207;29;20057;-75
2021/06/21 02:56:14;;;;;;;8.68;2.47;;;;;;;20.30;74.66;100046.22;4839665;29;20046;-68
2021/06/21 02:58:43;;;;;;;9.65;2.25;;;;;;;20.28;75.06;100050.59;4838323;29;20050;-73
2021/06/21 03:01:14;;;;;;;5.57;2.28;;;;;;;20.09;75.69;100049.72;4839937;29;20050;-69
2021/06/21 03:03:45;;;;;;;4.93;2.42;;;;;;;20.13;75.76;100055.34;4841460;29;20054;-72
2021/06/21 03:06:15;;;;;;;7.60;2.25;;;;;;;20.13;76.10;100058.94;4839141;29;20482;-72
2021/06/21 03:08:42;;;;;;;11.23;2.53;;;;;;;20.17;75.71;100067.38;4842277;29;20054;-71
2021/06/21 03:11:14;;;;;;;5.05;2.58;;;;;;;20.22;75.56;100064.19;4840030;29;20519;-69
2021/06/21 03:13:46;;;;;;;8.32;3.10;;;;;;;20.05;76.47;100062.06;4840923;29;20058;-71
2021/06/21 03:16:15;;;;;;;6.70;2.90;;;;;;;20.34;75.58;100057.44;4840398;29;20057;-75
2021/06/21 03:18:42;;;;;;;7.18;2.92;;;;;;;20.31;75.50;100063.81;4841187;29;20049;-72
2021/06/21 03:21:10;;;;;;;7.30;3.08;;;;;;;20.31;75.27;100058.22;4824967;29;20401;-72
2021/06/21 03:23:38;;;;;;;9.18;3.00;;;;;;;20.37;75.05;100057.44;4838908;29;20050;-71
2021/06/21 03:26:05;;;;;;;10.77;3.00;;;;;;;20.20;76.11;100055.41;4902886;29;20062;-73
2021/06/21 03:28:33;;;;;;;9.48;3.10;;;;;;;20.18;75.94;100063.38;4838658;29;20054;-69
2021/06/21 03:31:03;;;;;;;10.50;3.70;;;;;;;20.12;76.35;100059.31;4840272;29;20053;-68
2021/06/21 03:33:32;;;;;;;5.65;3.10;;;;;;;20.20;76.25;100062.97;4839356;29;20061;-71
2021/06/21 03:36:00;;;;;;;10.23;3.65;;;;;;;20.26;75.75;100058.63;4840975;29;20073;-68
2021/06/21 03:38:29;;;;;;;7.68;3.20;;;;;;;20.22;75.92;100057.78;4839235;29;20061;-71
2021/06/21 03:41:01;;;;;;;12.77;3.70;;;;;;;20.14;76.79;100048.53;4837977;29;20065;-73
2021/06/21 03:43:30;;;;;;;8.20;3.28;;;;;;;20.23;76.22;100051.00;4807283;29;20506;-68
2021/06/21 03:46:04;;;;;;;7.93;3.25;;;;;;;20.25;75.70;100051.41;4839111;29;20161;-77
2021/06/21 03:48:32;;;;;;;7.43;3.13;;;;;;;20.32;75.83;100062.63;4822796;29;20430;-70
2021/06/21 03:50:59;;;;;;;10.65;3.33;;;;;;;20.17;75.93;100063.78;4839257;29;20038;-71
2021/06/21 03:53:28;;;;;;;6.43;3.47;;;;;;;20.32;75.81;100069.03;4838577;29;20541;-70
2021/06/21 03:55:58;;;;;;;7.63;3.72;;;;;;;20.16;75.79;100062.97;4838939;29;20058;-70
2021/06/21 03:58:26;;;;;;;7.57;3.10;;;;;;;19.95;76.28;100069.22;4838890;29;20062;-72
2021/06/21 04:00:54;;;;;;;8.50;3.40;;;;;;;19.98;76.44;100068.44;4839021;29;20058;-78
2021/06/21 04:03:23;;;;;;;14.60;3.60;;;;;;;20.01;77.14;100075.25;4838668;29;20505;-78
2021/06/21 04:05:51;;;;;;;8.00;3.13;;;;;;;19.96;76.99;100075.63;4837917;29;20073;-76
2021/06/21 04:08:18;;;;;;;7.00;3.60;;;;;;;19.77;77.20;100073.13;4839052;29;20046;-78
2021/06/21 04:10:47;;;;;;;8.27;3.40;;;;;;;19.89;76.92;100075.59;4839257;29;20058;-78
2021/06/21 04:17:43;;;;;;;11.10;3.38;;;;;;;19.95;76.48;100083.22;4838538;29;20054;-69
2021/06/21 04:20:17;;;;;;;12.18;3.45;;;;;;;19.97;76.53;100086.41;4840252;29;20065;-75
2021/06/21 04:22:45;;;;;;;12.85;3.70;;;;;;;20.19;75.72;100086.56;4838917;29;20514;-73
2021/06/21 04:25:14;;;;;;;9.63;3.83;;;;;;;20.02;76.05;100093.63;4839056;29;20426;-72
2021/06/21 04:32:19;;;;;;;9.52;3.40;;;;;;;20.23;75.22;100088.16;4840329;29;20046;-72
2021/06/21 04:34:47;;;;;;;7.65;3.63;;;;;;;20.12;75.19;100082.50;4837452;29;20119;-69
2021/06/21 04:37:14;;;;;;;16.30;4.20;;;;;;;19.95;75.78;100085.19;4839744;29;20498;-67
2021/06/21 04:39:43;;;;;;;7.50;3.72;;;;;;;20.08;75.58;100090.06;4838792;29;20050;-68
2021/06/21 04:42:10;;;;;;;10.35;3.55;;;;;;;19.79;76.58;100093.09;4837401;29;20378;-68
2021/06/21 04:44:38;;;;;;;8.77;3.38;;;;;;;20.11;75.54;100100.47;4840584;29;20054;-68
2021/06/21 04:47:05;;;;;;;9.23;3.38;;;;;;;20.15;75.33;100104.06;4842109;29;20050;-70
2021/06/21 04:49:34;;;;;;;11.15;3.70;;;;;;;20.31;75.01;100102.97;4841030;29;20081;-73
2021/06/21 04:52:04;;;;;;;6.70;3.47;;;;;;;20.26;75.19;100098.56;4840440;29;20057;-70
2021/06/21 04:54:31;;;;;;;11.05;3.58;;;;;;;20.27;74.96;100102.97;4841818;29;20492;-75
2021/06/21 04:56:59;;;;;;;8.30;3.38;;;;;;;20.18;75.29;100099.72;4839852;29;20057;-72
2021/06/21 04:59:26;;;;;;;9.88;3.35;;;;;;;20.11;75.24;100116.44;4840227;29;20401;-69
2021/06/21 05:01:54;;;;;;;11.90;3.53;;;;;;;19.96;76.11;100109.19;4841667;29;20054;-74
2021/06/21 05:04:21;;;;;;;10.27;3.80;;;;;;;20.22;75.43;100110.94;4841487;29;20585;-71
2021/06/21 05:06:48;;;;;;;8.45;3.70;;;;;;;20.17;75.56;100116.91;4842689;29;20073;-69
2021/06/21 05:09:16;;;;;;;11.65;4.10;;;;;;;20.26;75.33;100123.72;4841103;29;20064;-68
2021/06/21 05:16:11;;;;;;;9.40;3.50;;;;;;;19.99;76.63;100122.38;4841424;29;20054;-69
2021/06/21 05:18:39;;;;;;;6.43;3.70;;;;;;;20.04;76.03;100116.41;4840064;29;20057;-68
2021/06/21 05:21:06;;;;;;;10.98;4.07;;;;;;;20.11;76.25;100124.84;4824901;29;20406;-70
2021/06/21 05:23:34;;;;;;;11.80;4.30;;;;;;;20.05;76.17;100126.38;4839857;29;20061;-72
2021/06/21 05:26:05;;;;;;;10.27;4.40;;;;;;;20.29;75.14;100122.97;4825494;29;20061;-74
2021/06/21 05:28:32;;;;;;;9.65;4.40;;;;;;;20.09;75.67;100121.63;4839670;29;20058;-73
2021/06/21 05:30:59;;;;;;;10.75;4.78;;;;;;;20.19;74.96;100120.13;4839819;29;20254;-71
2021/06/21 05:33:27;;;;;;;7.18;3.95;;;;;;;20.16;75.22;100127.28;4824670;29;20374;-70
2021/06/21 05:35:54;;;;;;;10.40;4.20;;;;;;;20.20;75.12;100132.88;4841075;29;20050;-76
2021/06/21 05:38:22;;;;;;;7.20;4.13;;;;;;;20.29;74.83;100133.34;4840999;29;20529;-70
2021/06/21 05:40:49;;;;;;;9.20;3.78;;;;;;;20.28;75.21;100131.72;4904448;29;20058;-75
2021/06/21 05:43:16;;;;;;;6.65;3.70;;;;;;;20.61;74.02;100137.06;4842325;29;20069;-73
2021/06/21 05:45:44;;;;;;;9.55;3.95;;;;;;;20.66;73.37;100131.09;4839643;29;20061;-71
2021/06/21 05:48:15;;;;;;;12.85;6.03;;;;;;;20.46;73.71;100129.81;4902187;29;20049;-70
2021/06/21 05:50:45;;;;;;;11.00;7.90;;;;;;;20.47;74.17;100131.44;4842244;29;20062;-68
2021/06/21 05:53:13;;;;;;;8.45;5.05;;;;;;;20.38;74.11;100142.19;4840754;29;20054;-69
2021/06/21 05:55:40;;;;;;;7.95;3.67;;;;;;;20.40;73.58;100145.38;4840259;29;20054;-67
2021/06/21 05:58:08;;;;;;;8.80;4.28;;;;;;;20.53;73.19;100150.25;4807414;29;20447;-69
2021/06/21 06:00:35;;;;;;;11.02;3.97;;;;;;;20.74;73.23;100149.50;4839656;29;20072;-66
2021/06/21 06:03:03;;;;;;;11.48;6.35;;;;;;;20.86;72.33;100161.16;4904737;29;20050;-67
2021/06/21 06:05:30;;;;;;;6.88;4.00;;;;;;;20.94;72.04;100164.75;4842173;29;20058;-70
2021/06/21 06:07:58;;;;;;;8.55;3.67;;;;;;;20.92;71.90;100161.56;4841006;29;20046;-69
2021/06/21 06:10:25;;;;;;;7.57;3.60;;;;;;;20.98;71.60;100169.19;4840363;29;20050;-70
2021/06/21 06:12:53;;;;;;;7.82;3.78;;;;;;;21.11;70.85;100169.63;4841901;29;20068;-70
2021/06/21 06:15:20;;;;;;;8.77;3.40;;;;;;;21.07;70.16;100164.03;4840831;29;20065;-71
2021/06/21 06:17:49;;;;;;;8.02;3.38;;;;;;;21.09;70.59;100172.03;4838924;29;20077;-68
2021/06/21 06:20:16;;;;;;;8.48;3.10;;;;;;;21.27;69.54;100172.06;4839245;29;20478;-70
2021/06/21 06:22:45;;;;;;;11.27;3.53;;;;;;;21.60;69.11;100178.06;4838229;29;20411;-73
2021/06/21 06:25:14;;;;;;;11.00;3.97;;;;;;;21.34;68.98;100178.44;4841342;29;20054;-77
2021/06/21 06:27:42;;;;;;;9.30;3.13;;;;;;;21.17;70.00;100182.84;4840238;29;20054;-77
2021/06/21 06:34:34;;;;;;;12.15;3.28;;;;;;;21.18;71.57;100178.06;4841636;29;20061;-70
2021/06/21 06:37:06;;;;;;;10.82;3.38;;;;;;;21.50;69.65;100173.25;4838298;29;20056;-76
2021/06/21 06:39:34;;;;;;;8.07;3.25;;;;;;;21.16;69.55;100161.66;4901311;29;20058;-74
2021/06/21 06:42:01;;;;;;;7.18;3.10;;;;;;;21.24;68.62;100159.63;4841091;29;20053;-71
2021/06/21 06:44:29;;;;;;;7.20;2.90;;;;;;;21.32;68.46;100155.66;4838499;29;20050;-73
2021/06/21 06:46:57;;;;;;;7.20;3.17;;;;;;;21.12;67.20;100148.81;4903700;29;20069;-72
2021/06/21 06:49:25;;;;;;;6.95;3.38;;;;;;;20.79;68.23;100161.13;4840149;29;20058;-70
2021/06/21 06:51:54;;;;;;;6.47;2.83;;;;;;;20.85;68.59;100167.91;4838989;29;20065;-69
2021/06/21 06:54:28;;;;;;;8.43;3.47;;;;;;;20.95;68.38;100166.38;4903013;29;20493;-68
2021/06/21 06:56:59;;;;;;;8.98;3.60;;;;;;;21.10;68.02;100173.63;4839736;29;20413;-69
2021/06/21 06:59:29;;;;;;;7.35;3.30;;;;;;;21.27;67.18;100172.06;4839965;29;20057;-69
2021/06/21 07:02:02;;;;;;;14.20;4.50;;;;;;;21.36;66.86;100162.03;4840594;29;20058;-67
2021/06/21 07:04:35;;;;;;;9.38;3.08;;;;;;;21.44;66.12;100160.88;4839906;29;20042;-71
2021/06/21 07:07:06;;;;;;;9.65;3.10;;;;;;;21.39;66.00;100180.06;4838883;29;20049;-70
2021/06/21 07:09:35;;;;;;;8.02;2.90;;;;;;;21.62;64.53;100178.47;4837627;29;20065;-68
2021/06/21 07:12:02;;;;;;;9.52;2.65;;;;;;;21.51;65.52;100180.50;4839280;29;20065;-69
2021/06/21 07:14:33;;;;;;;9.63;2.70;;;;;;;21.58;64.52;100188.09;4823895;29;20050;-71
2021/06/21 07:17:01;;;;;;;8.88;3.20;;;;;;;21.67;63.81;100186.47;4839292;29;20069;-72
2021/06/21 07:19:29;;;;;;;13.27;3.22;;;;;;;21.71;63.53;100180.88;4838949;29;20426;-69
2021/06/21 07:21:57;;;;;;;10.32;2.70;;;;;;;21.83;62.96;100189.72;4840150;29;20100;-69
2021/06/21 07:24:24;;;;;;;7.63;3.20;;;;;;;21.97;62.67;100186.91;4839451;29;20573;-69
2021/06/21 07:26:52;;;;;;;8.13;3.00;;;;;;;21.82;62.84;100190.94;4839284;29;20057;-70
2021/06/21 07:29:22;;;;;;;12.40;2.92;;;;;;;21.84;63.51;100198.94;4838980;29;20050;-69
2021/06/21 07:31:49;;;;;;;11.07;3.38;;;;;;;21.98;63.08;100193.31;4840493;29;20065;-70
2021/06/21 07:34:17;;;;;;;8.27;3.13;;;;;;;22.11;63.56;100203.69;4840735;29;20050;-72
2021/06/21 07:36:45;;;;;;;11.75;3.75;;;;;;;22.02;62.83;100200.50;4839918;29;20398;-73
2021/06/21 07:39:12;;;;;;;8.48;2.80;;;;;;;22.46;62.09;100202.00;4839125;29;20057;-73
2021/06/21 07:41:40;;;;;;;11.27;3.30;;;;;;;22.65;61.29;100204.41;4839649;29;20070;-72
2021/06/21 07:44:12;;;;;;;7.00;2.78;;;;;;;22.38;60.79;100197.63;4839404;29;20134;-75
2021/06/21 07:46:39;;;;;;;7.85;2.80;;;;;;;22.06;62.43;100208.91;4837670;29;20061;-73
2021/06/21 07:49:09;;;;;;;9.52;3.22;;;;;;;22.53;61.71;100210.41;4839339;29;20066;-72
2021/06/21 07:51:36;;;;;;;7.88;2.40;;;;;;;22.59;59.75;100211.63;4839433;29;20046;-73
2021/06/21 07:54:04;;;;;;;16.35;3.30;;;;;;;22.91;60.04;100213.09;4902153;29;20057;-73
2021/06/21 07:56:31;;;;;;;6.72;1.77;;;;;;;23.40;57.00;100209.22;4839720;29;20049;-67
2021/06/21 07:58:59;;;;;;;6.78;2.08;;;;;;;23.75;54.41;100214.59;4838399;29;20054;-67
2021/06/21 08:05:55;;;;;;;10.20;1.95;;;;;;;24.07;52.51;100208.69;4839219;29;20045;-68
2021/06/21 08:08:22;;;;;;;10.50;1.83;;;;;;;24.04;49.96;100212.38;4900837;29;20057;-74
2021/06/21 08:10:50;;;;;;;9.60;2.15;;;;;;;24.26;48.62;100217.38;4839373;29;20061;-70
2021/06/21 08:13:17;;;;;;;6.18;1.77;;;;;;;24.18;48.04;100221.44;4839255;29;20053;-75
2021/06/21 08:20:13;;;;;;;7.97;2.20;;;;;;;23.95;45.73;100221.25;4840589;29;20054;-64
2021/06/21 08:22:41;;;;;;;11.68;2.40;;;;;;;23.61;46.62;100227.94;4839156;29;20062;-67
2021/06/21 08:25:09;;;;;;;19.35;2.90;;;;;;;23.41;46.82;100225.66;4823921;29;20054;-65
2021/06/21 08:27:37;;;;;;;10.57;1.90;;;;;;;23.63;46.80;100226.34;4838930;29;20074;-64
2021/06/21 08:34:45;;;;;;;9.43;2.78;;;;;;;23.59;46.84;100231.16;4840224;29;20054;-68
2021/06/21 08:37:12;;;;;;;7.00;2.00;;;;;;;23.96;45.78;100228.47;4838995;29;20058;-65
2021/06/21 08:39:40;;;;;;;7.63;2.25;;;;;;;23.86;46.06;100220.94;4837961;29;20062;-65
2021/06/21 08:42:07;;;;;;;7.70;2.50;;;;;;;24.17;45.41;100224.69;4839227;29;20401;-67
2021/06/21 08:44:36;;;;;;;6.95;1.73;;;;;;;24.14;44.83;100209.44;4839710;29;20050;-64
2021/06/21 08:51:32;;;;;;;9.90;2.30;;;;;;;24.02;45.44;100211.97;4838730;29;20046;-70
2021/06/21 08:54:00;;;;;;;7.90;2.05;;;;;;;24.17;45.18;100214.22;4838594;29;20057;-66
2021/06/21 08:56:27;;;;;;;10.00;2.20;;;;;;;24.15;45.40;100222.28;4838385;29;20386;-63
2021/06/21 08:58:54;;;;;;;8.85;2.38;;;;;;;23.50;46.68;100219.63;4837999;29;20489;-71
2021/06/21 09:05:50;;;;;;;14.18;2.88;;;;;;;23.62;46.78;100227.56;4838447;29;20062;-75
2021/06/21 09:08:18;;;;;;;10.10;2.08;;;;;;;23.41;46.30;100217.25;4840282;29;20379;-66
2021/06/21 09:10:50;;;;;;;8.98;2.03;;;;;;;23.83;45.82;100213.31;4840733;29;20065;-68
2021/06/21 09:13:19;;;;;;;9.43;2.15;;;;;;;23.99;45.43;100229.66;4838299;29;20050;-70
2021/06/21 09:20:15;;;;;;;11.95;1.65;;;;;;;23.72;45.11;100231.47;4838053;29;20046;-65
2021/06/21 09:22:53;;;;;;;9.67;1.93;;;;;;;23.87;45.00;100230.19;4837865;29;20065;-75
2021/06/21 09:25:20;;;;;;;6.90;1.67;;;;;;;23.99;45.62;100227.66;4837866;29;20054;-72
2021/06/21 09:28:04;;;;;;;9.25;2.35;;;;;;;24.14;45.01;100243.22;4837750;29;20061;-77
2021/06/21 09:30:33;;;;;;;11.25;2.17;;;;;;;24.41;44.30;100235.69;4838397;29;20060;-72
2021/06/21 09:37:47;;;;;;;10.18;2.10;;;;;;;24.36;45.00;100241.78;4904866;29;20054;-73
2021/06/21 09:40:31;;;;;;;7.43;1.88;;;;;;;23.95;44.83;100242.97;4841759;29;20061;-75
2021/06/21 09:43:17;;;;;;;7.60;1.30;;;;;;;24.19;44.83;100242.75;4903436;29;20053;-78
2021/06/21 09:50:23;;;;;;;7.15;2.08;;;;;;;23.36;46.59;100257.03;4841730;29;20054;-74
2021/06/21 09:52:55;;;;;;;9.55;1.63;;;;;;;23.76;44.18;100255.56;4841399;29;20058;-69
2021/06/21 09:55:32;;;;;;;10.73;2.17;;;;;;;23.98;44.46;100259.81;4842273;29;20061;-80
2021/06/21 09:58:21;;;;;;;7.88;1.80;;;;;;;23.83;45.05;100263.16;4840357;29;20406;-69
2021/06/21 10:00:51;;;;;;;9.35;2.08;;;;;;;23.88;45.20;100271.16;4841083;29;20065;-76
2021/06/21 10:07:46;;;;;;;5.25;1.20;;;;;;;24.00;44.53;100279.13;4846962;29;20054;-71
2021/06/21 10:10:18;;;;;;;5.65;1.58;;;;;;;23.97;44.79;100279.91;4843914;29;20068;-69
2021/06/21 10:12:46;;;;;;;6.45;1.50;;;;;;;24.16;44.54;100274.56;4844074;29;20053;-71
2021/06/21 10:15:14;;;;;;;8.85;1.80;;;;;;;24.23;44.46;100268.84;4844683;29;20061;-69
2021/06/21 10:17:42;;;;;;;6.10;1.30;;;;;;;24.44;43.38;100277.09;4843138;29;20061;-67
2021/06/21 10:20:10;;;;;;;9.63;1.92;;;;;;;24.84;42.47;100280.31;4841467;29;20057;-67
2021/06/21 10:22:38;;;;;;;6.95;1.33;;;;;;;24.81;42.67;100279.13;4843345;29;20054;-73
2021/06/21 10:25:07;;;;;;;6.55;1.50;;;;;;;24.90;42.85;100273.78;4843089;29;20050;-72
2021/06/21 10:27:39;;;;;;;8.05;1.65;;;;;;;25.03;42.69;100263.59;4844673;29;20053;-73
2021/06/21 10:30:12;;;;;;;6.35;1.45;;;;;;;25.27;42.68;100268.09;4905854;29;20058;-72
2021/06/21 10:32:40;;;;;;;8.80;2.30;;;;;;;25.22;42.41;100273.41;4840592;29;20046;-73
2021/06/21 10:35:11;;;;;;;8.10;2.53;;;;;;;25.46;41.92;100272.28;4840716;29;20057;-71
2021/06/21 10:37:53;;;;;;;8.48;1.98;;;;;;;25.40;41.63;100269.13;4838810;29;20126;-71
2021/06/21 10:40:22;;;;;;;7.28;2.05;;;;;;;25.51;42.19;100263.34;4838117;29;20065;-71
2021/06/21 10:42:50;;;;;;;10.15;1.85;;;;;;;25.23;42.07;100269.34;4841350;29;20057;-65
2021/06/21 10:45:27;;;;;;;9.32;1.80;;;;;;;24.39;43.62;100260.66;4838781;29;20502;-67
2021/06/21 10:48:11;;;;;;;5.55;1.90;;;;;;;24.32;44.41;100260.72;4838329;29;20057;-68
2021/06/21 10:50:52;;;;;;;10.05;1.92;;;;;;;24.64;44.12;100270.84;4841181;29;20058;-70
2021/06/21 10:53:20;;;;;;;8.38;1.88;;;;;;;24.37;45.41;100262.31;4839746;29;20072;-69
2021/06/21 10:55:49;;;;;;;10.10;3.40;;;;;;;24.67;45.04;100273.63;4839787;29;20058;-68
2021/06/21 10:58:23;;;;;;;8.45;2.95;;;;;;;24.70;45.11;100272.84;4839781;29;20057;-66
2021/06/21 11:00:51;;;;;;;8.45;2.00;;;;;;;24.78;44.59;100265.88;4839076;29;20061;-66
2021/06/21 11:03:25;;;;;;;7.90;1.52;;;;;;;25.39;44.04;100263.91;4838934;29;20054;-66
2021/06/21 11:05:56;;;;;;;9.98;2.83;;;;;;;25.23;44.21;100263.69;4839453;29;20054;-69
2021/06/21 11:08:39;;;;;;;8.05;3.30;;;;;;;25.41;42.26;100264.28;4838161;29;20053;-73
2021/06/21 11:11:41;;;;;;;7.53;2.08;;;;;;;25.36;41.82;100268.41;4838957;29;20069;-68
2021/06/21 11:14:21;;;;;;;10.80;5.30;;;;;;;25.58;42.51;100259.63;4837303;29;20058;-73
2021/06/21 11:21:24;;;;;;;4.55;1.30;;;;;;;25.74;41.38;100263.41;4895504;29;20055;-79
2021/06/21 11:23:53;;;;;;;6.35;1.23;;;;;;;25.74;41.50;100266.22;4897529;29;20049;-75
2021/06/21 11:26:59;;;;;;;4.85;1.73;;;;;;;24.68;41.54;100258.34;4897472;29;20056;-74
2021/06/21 11:29:29;;;;;;;5.35;1.40;;;;;;;24.26;43.32;100265.22;4895349;29;20053;-76
2021/06/21 11:31:58;;;;;;;7.88;1.77;;;;;;;23.75;45.17;100262.41;4895667;29;20060;-77
2021/06/21 11:34:56;;;;;;;4.35;1.35;;;;;;;23.93;44.79;100260.25;4879676;29;20502;-76
2021/06/21 11:37:40;;;;;;;7.10;1.58;;;;;;;24.27;45.25;100249.91;4879977;29;20060;-73
2021/06/21 11:40:19;;;;;;;4.88;1.25;;;;;;;24.38;45.06;100253.44;4895239;29;20064;-78
2021/06/21 11:42:56;;;;;;;;;;;;;;;24.53;46.40;100254.06;4880652;29;20425;-74
2021/06/21 11:45:49;;;;;;;5.38;1.25;;;;;;;24.89;45.44;100258.13;4895677;29;19927;-85
2021/06/21 11:52:34;;;;;;;6.82;1.83;;;;;;;24.84;45.44;100254.97;4896432;29;20052;-79
2021/06/21 11:55:17;;;;;;;7.68;1.90;;;;;;;25.34;44.34;100253.09;4864439;29;20068;-81
2021/06/21 11:57:47;;;;;;;5.13;1.42;;;;;;;25.35;43.16;100246.25;4840975;29;20050;-80
2021/06/21 12:00:17;;;;;;;6.00;1.10;;;;;;;24.92;42.94;100248.00;4837556;29;20057;-70
2021/06/21 12:02:45;;;;;;;3.28;1.13;;;;;;;24.93;43.76;100241.94;4837276;29;20509;-72
2021/06/21 12:05:17;;;;;;;5.25;1.20;;;;;;;24.24;44.27;100241.50;4838835;29;20057;-74
2021/06/21 12:07:45;;;;;;;5.82;1.58;;;;;;;24.67;43.61;100247.50;4839122;29;20061;-73
2021/06/21 12:10:17;;;;;;;4.63;1.20;;;;;;;24.96;43.29;100231.88;4837575;29;20054;-75
2021/06/21 12:12:56;;;;;;;4.25;1.27;;;;;;;25.14;41.66;100232.44;4837902;29;20494;-74
2021/06/21 12:15:33;;;;;;;5.68;1.48;;;;;;;24.93;42.68;100229.91;4838465;29;20410;-74
2021/06/21 12:18:00;;;;;;;7.28;1.10;;;;;;;24.96;43.36;100226.22;4836798;29;20057;-74
2021/06/21 12:20:28;;;;;;;6.32;1.50;;;;;;;25.55;42.52;100224.59;4837283;29;20061;-73
2021/06/21 12:22:59;;;;;;;;;;;;;;;26.19;39.90;100213.06;4900844;29;20065;-72
2021/06/21 12:25:30;;;;;;;5.57;1.20;;;;;;;26.19;39.52;100213.06;4839011;29;19932;-75
2021/06/21 12:28:27;;;;;;;7.50;1.40;;;;;;;26.22;40.42;100210.16;4837256;29;20054;-74
2021/06/21 12:31:08;;;;;;;5.30;1.17;;;;;;;26.51;37.36;100205.59;4879412;28;20068;-71
2021/06/21 12:37:35;;;;;;;3.72;0.95;;;;;;;25.89;35.70;100216.78;4895113;29;20049;-73
2021/06/21 12:40:14;;;;;;;3.97;0.80;;;;;;;25.59;38.23;100216.91;4895182;29;20510;-72
2021/06/21 12:42:43;;;;;;;8.80;1.33;;;;;;;25.37;38.94;100216.41;4894355;29;20072;-77
2021/06/21 12:45:14;;;;;;;6.93;3.03;;;;;;;25.59;38.28;100214.84;4894329;29;20551;-79
2021/06/21 12:47:54;;;;;;;3.70;1.02;;;;;;;25.75;37.55;100210.59;4893674;29;20508;-74
2021/06/21 12:50:24;;;;;;;3.63;1.38;;;;;;;25.72;38.13;100203.75;4879296;29;20060;-77
2021/06/21 12:52:55;;;;;;;5.70;1.27;;;;;;;26.33;36.82;100196.66;4893229;29;20177;-78
2021/06/21 12:55:24;;;;;;;6.23;1.33;;;;;;;26.63;36.22;100192.84;4896649;29;20056;-69